Time;durP1;ratioP1;P1;durP2;ratioP2;P2;SDS_P1;SDS_P2;PMS_P1;PMS_P2;Temp;Humidity;BMP_temperature;BMP_pressure;BME280_temperature;BME280_humidity;BME280_pressure;Samples;Min_cycle;Max_cycle;Signal;HPM_P1;HPM_P2
2022/11/18 00:01:15;;;;;;;6.35;3.13;;;;;;;10.93;60.92;92846.09;5069250;28;20024;-75
2022/11/18 00:03:41;;;;;;;7.43;3.20;;;;;;;10.97;61.10;92849.59;5051567;28;20035;-75
2022/11/18 00:06:10;;;;;;;6.60;3.53;;;;;;;10.86;61.64;92837.88;5068427;28;20028;-75
2022/11/18 00:08:36;;;;;;;6.68;3.80;;;;;;;10.85;62.40;92846.22;5068302;28;20032;-74
2022/11/18 00:11:06;;;;;;;5.80;3.28;;;;;;;10.42;62.97;92781.19;5068632;28;20078;-75
2022/11/18 00:16:15;;;;;;;4.75;3.33;;;;;;;10.41;63.29;92779.66;5067908;28;20063;-75
2022/11/18 00:18:41;;;;;;;8.80;3.40;;;;;;;10.78;63.59;92830.84;5069132;28;20019;-76
2022/11/18 00:21:09;;;;;;;6.40;4.03;;;;;;;10.82;63.30;92841.56;5067210;28;20047;-75
2022/11/18 00:23:34;;;;;;;6.05;3.50;;;;;;;10.83;63.38;92832.47;5067204;28;20633;-75
2022/11/18 00:26:06;;;;;;;6.88;4.25;;;;;;;10.91;63.64;92844.84;5067773;28;20040;-75
2022/11/18 00:28:32;;;;;;;5.40;3.60;;;;;;;10.95;63.49;92848.41;5057113;28;20040;-75
2022/11/18 00:31:03;;;;;;;5.93;4.82;;;;;;;10.88;62.77;92825.03;5068182;28;20016;-75
2022/11/18 00:33:28;;;;;;;4.85;3.75;;;;;;;10.93;62.83;92827.47;5068176;28;20044;-76
2022/11/18 00:35:54;;;;;;;8.32;4.72;;;;;;;10.78;62.84;92801.59;5068142;28;20456;-76
2022/11/18 00:38:19;;;;;;;5.93;4.07;;;;;;;10.88;63.15;92802.97;5066511;28;20032;-75
2022/11/18 00:40:45;;;;;;;5.03;3.70;;;;;;;10.95;62.83;92806.63;5048165;28;20039;-75
2022/11/18 00:43:10;;;;;;;6.95;4.15;;;;;;;11.14;62.48;92829.94;5068932;28;20067;-76
2022/11/18 00:45:36;;;;;;;6.55;4.05;;;;;;;11.02;61.75;92841.38;5064522;28;20028;-75
2022/11/18 00:48:01;;;;;;;5.78;3.80;;;;;;;11.00;61.67;92848.94;5068299;28;20687;-76
2022/11/18 00:50:27;;;;;;;7.00;4.65;;;;;;;10.96;62.12;92832.09;5068573;28;20392;-76
2022/11/18 00:52:52;;;;;;;6.38;4.38;;;;;;;11.00;61.91;92838.28;5046867;28;21048;-76
2022/11/18 00:55:18;;;;;;;9.32;4.53;;;;;;;10.73;61.44;92799.94;5068458;28;20499;-76
2022/11/18 00:57:43;;;;;;;7.50;4.93;;;;;;;10.85;61.27;92831.03;5065553;28;20028;-75
2022/11/18 01:00:10;;;;;;;8.35;5.50;;;;;;;11.00;61.27;92846.25;5067239;28;20040;-75
2022/11/18 01:02:35;;;;;;;9.73;4.72;;;;;;;11.01;60.94;92845.16;5067501;28;21162;-76
2022/11/18 01:05:00;;;;;;;8.00;4.93;;;;;;;10.80;60.60;92815.31;5055498;28;20086;-76
2022/11/18 01:07:26;;;;;;;7.00;4.57;;;;;;;10.70;60.44;92797.19;5047142;28;20040;-76
2022/11/18 01:09:51;;;;;;;8.57;4.43;;;;;;;10.87;60.51;92822.72;5049945;28;20031;-75
2022/11/18 01:15:01;;;;;;;5.72;4.00;;;;;;;10.81;60.43;92834.72;5046243;28;20051;-74
2022/11/18 01:17:29;;;;;;;4.78;3.28;;;;;;;10.81;60.30;92830.16;5046039;28;21076;-75
2022/11/18 01:19:54;;;;;;;4.95;3.67;;;;;;;10.64;59.99;92846.38;5048755;28;20033;-75
2022/11/18 01:22:20;;;;;;;5.45;4.10;;;;;;;10.39;60.59;92803.13;5066081;28;20043;-76
2022/11/18 01:24:45;;;;;;;5.65;4.10;;;;;;;10.09;60.76;92757.44;5050969;28;20028;-75
2022/11/18 01:27:11;;;;;;;9.65;4.40;;;;;;;10.48;60.57;92816.28;5050643;28;20496;-76
2022/11/18 01:29:36;;;;;;;6.25;5.03;;;;;;;10.66;60.60;92844.94;5050196;28;20398;-75
2022/11/18 01:32:01;;;;;;;4.80;4.07;;;;;;;10.44;60.79;92805.56;5048945;28;20409;-75
2022/11/18 01:34:28;;;;;;;3.72;2.85;;;;;;;10.55;60.58;92843.88;5046816;28;20086;-75
2022/11/18 01:36:55;;;;;;;2.75;2.45;;;;;;;10.39;62.14;92834.25;5049478;28;20264;-76
2022/11/18 01:39:21;;;;;;;4.72;3.00;;;;;;;10.41;61.98;92824.06;5051572;28;20155;-76
2022/11/18 01:41:46;;;;;;;3.92;2.42;;;;;;;10.40;61.67;92812.66;5032840;28;20551;-75
2022/11/18 01:44:53;;;;;;;4.18;2.10;;;;;;;10.53;61.42;92830.13;5040677;28;20061;-76
2022/11/18 01:47:19;;;;;;;2.78;2.22;;;;;;;10.55;61.77;92835.88;5049642;28;20441;-75
2022/11/18 01:49:45;;;;;;;3.55;2.20;;;;;;;10.42;61.28;92817.63;5050366;28;20032;-76
2022/11/18 01:52:11;;;;;;;4.75;2.70;;;;;;;10.54;61.16;92834.34;5050503;28;20726;-75
2022/11/18 01:54:40;;;;;;;3.70;3.13;;;;;;;10.51;61.25;92826.25;5050479;28;20056;-75
2022/11/18 01:57:19;;;;;;;4.20;2.78;;;;;;;10.35;61.35;92796.13;5049596;28;20021;-75
2022/11/18 01:59:47;;;;;;;5.82;3.22;;;;;;;10.39;61.14;92802.34;5049516;28;20041;-75
2022/11/18 02:02:13;;;;;;;5.10;2.60;;;;;;;10.47;61.02;92806.75;5050975;28;20033;-75
2022/11/18 02:21:38;;;;;;;3.38;2.05;;;;;;;11.24;57.31;92823.34;5008294;27;20426;-76
2022/11/18 02:24:45;;;;;;;4.70;2.70;;;;;;;11.01;57.42;92845.16;4990569;28;20042;-74
2022/11/18 02:27:27;;;;;;;4.47;3.00;;;;;;;10.83;57.97;92838.56;5001799;28;20043;-75
2022/11/18 02:30:03;;;;;;;3.50;2.50;;;;;;;10.68;58.15;92836.63;5039966;28;20279;-76
2022/11/18 02:32:39;;;;;;;4.35;2.70;;;;;;;10.54;58.00;92836.22;5110610;28;20411;-75
2022/11/18 02:35:13;;;;;;;4.40;2.53;;;;;;;10.40;58.32;92819.84;5108450;28;20056;-75
2022/11/18 02:38:17;;;;;;;3.85;2.55;;;;;;;10.18;58.07;92795.28;5109177;28;20045;-75
2022/11/18 02:40:51;;;;;;;6.35;4.63;;;;;;;10.04;58.45;92816.09;5110339;28;20085;-75
2022/11/18 02:43:26;;;;;;;15.88;9.43;;;;;;;10.07;59.82;92839.34;5109458;28;20028;-75
2022/11/18 02:45:57;;;;;;;10.43;7.28;;;;;;;10.03;59.82;92827.81;5108244;28;20032;-75
2022/11/18 02:48:27;;;;;;;15.02;8.77;;;;;;;10.01;59.72;92819.44;5110043;28;20063;-75
2022/11/18 02:50:54;;;;;;;11.70;7.75;;;;;;;10.02;59.82;92820.97;5110523;28;20040;-74
2022/11/18 02:53:20;;;;;;;6.28;3.70;;;;;;;9.98;60.76;92828.03;5111597;28;20054;-75
2022/11/18 02:55:47;;;;;;;3.97;3.03;;;;;;;9.51;63.84;92803.03;5113049;28;20028;-74
2022/11/18 02:58:16;;;;;;;5.13;3.13;;;;;;;9.74;64.04;92826.16;5112380;28;20017;-75
2022/11/18 03:00:43;;;;;;;5.50;3.38;;;;;;;9.34;63.92;92764.97;5110999;28;20028;-75
2022/11/18 03:03:24;;;;;;;6.22;4.18;;;;;;;9.92;63.91;92828.63;5108165;28;20114;-74
2022/11/18 03:06:20;;;;;;;4.85;3.83;;;;;;;9.97;63.27;92828.41;5111361;28;20502;-75
2022/11/18 03:09:04;;;;;;;3.33;2.97;;;;;;;10.00;62.49;92828.50;5116259;28;20040;-75
2022/11/18 03:11:33;;;;;;;6.00;3.47;;;;;;;9.91;62.44;92822.53;5117412;28;20019;-75
2022/11/18 03:14:15;;;;;;;6.15;3.67;;;;;;;10.04;62.43;92829.38;5110597;28;20121;-75
2022/11/18 03:16:48;;;;;;;5.30;3.85;;;;;;;9.93;62.16;92833.56;5104711;28;20027;-76
2022/11/18 03:19:25;;;;;;;4.97;3.58;;;;;;;9.96;61.88;92824.19;5107387;28;20124;-75
2022/11/18 03:22:10;;;;;;;5.07;3.75;;;;;;;9.89;61.62;92812.22;5097818;28;20060;-74
2022/11/18 03:24:41;;;;;;;5.18;3.40;;;;;;;9.99;62.05;92824.28;5092797;28;20032;-75
2022/11/18 03:27:17;;;;;;;4.60;3.28;;;;;;;9.86;62.27;92820.09;5098242;28;20032;-75
2022/11/18 03:29:53;;;;;;;3.20;2.80;;;;;;;9.77;62.51;92812.25;5095631;28;20044;-75
2022/11/18 03:32:25;;;;;;;3.45;2.65;;;;;;;9.91;62.24;92829.72;5093374;28;20036;-75
2022/11/18 03:35:00;;;;;;;4.82;3.50;;;;;;;9.89;62.15;92827.38;5092034;28;20031;-75
2022/11/18 03:37:29;;;;;;;6.25;4.45;;;;;;;9.71;61.93;92786.22;5102051;28;20012;-74
2022/11/18 03:40:05;;;;;;;6.47;3.80;;;;;;;9.75;61.88;92805.69;5097389;28;20029;-75
2022/11/18 03:42:56;;;;;;;6.32;3.45;;;;;;;9.85;61.50;92805.25;5094648;28;20036;-75
2022/11/18 03:45:28;;;;;;;4.93;2.92;;;;;;;9.90;61.53;92813.00;5083980;28;20032;-75
2022/11/18 03:48:18;;;;;;;5.88;3.85;;;;;;;9.85;62.01;92806.03;5093752;28;20120;-75
2022/11/18 03:50:56;;;;;;;3.75;3.10;;;;;;;9.89;61.51;92806.13;5095725;28;20051;-75
2022/11/18 03:53:24;;;;;;;6.35;3.80;;;;;;;9.69;61.44;92762.66;5093202;28;20399;-76
2022/11/18 03:55:57;;;;;;;5.05;3.80;;;;;;;9.90;62.06;92813.00;5099392;28;20028;-75
2022/11/18 03:58:32;;;;;;;6.15;4.25;;;;;;;9.91;61.05;92816.44;5096058;28;20040;-75
2022/11/18 04:01:08;;;;;;;6.15;3.38;;;;;;;9.90;60.99;92805.03;5096595;28;20033;-76
2022/11/18 04:03:33;;;;;;;7.43;4.00;;;;;;;9.77;61.05;92804.28;5092456;28;20044;-75
2022/11/18 04:06:12;;;;;;;9.73;4.40;;;;;;;9.75;61.08;92805.69;5091498;28;20071;-76
2022/11/18 04:08:41;;;;;;;8.32;4.85;;;;;;;9.75;60.98;92795.06;5090773;28;20036;-77
2022/11/18 04:14:05;;;;;;;6.10;3.70;;;;;;;9.59;61.37;92780.91;5100672;28;20046;-75
2022/11/18 04:16:30;;;;;;;4.65;3.40;;;;;;;9.74;60.75;92804.13;5098530;28;20036;-77
2022/11/18 04:18:56;;;;;;;7.72;3.83;;;;;;;9.55;60.92;92782.69;5099392;28;20036;-76
2022/11/18 04:21:21;;;;;;;8.07;4.68;;;;;;;9.42;61.08;92776.59;5097423;28;20044;-75
2022/11/18 04:23:46;;;;;;;8.85;4.80;;;;;;;9.47;61.22;92776.38;5099978;28;20052;-76
2022/11/18 04:26:12;;;;;;;6.05;4.75;;;;;;;9.44;61.70;92775.16;5097953;28;20641;-76
2022/11/18 04:28:37;;;;;;;5.82;3.30;;;;;;;9.70;61.66;92819.19;5099613;28;20039;-77
2022/11/18 04:31:02;;;;;;;5.20;3.85;;;;;;;9.49;61.64;92802.59;5099826;28;20095;-76
2022/11/18 04:33:28;;;;;;;7.53;4.00;;;;;;;9.57;62.06;92807.03;5098292;28;20024;-75
2022/11/18 04:35:53;;;;;;;8.00;4.95;;;;;;;9.65;62.24;92814.09;5095305;28;20047;-76
2022/11/18 04:38:18;;;;;;;6.38;3.95;;;;;;;9.56;61.84;92800.16;5096843;28;20050;-76
2022/11/18 04:40:45;;;;;;;10.73;3.78;;;;;;;9.51;61.92;92805.69;5088846;28;20025;-75
2022/11/18 04:43:10;;;;;;;5.72;4.20;;;;;;;9.40;62.01;92800.78;5090127;28;20036;-77
2022/11/18 04:45:36;;;;;;;6.82;4.35;;;;;;;9.55;61.83;92817.97;5087962;28;20099;-74
2022/11/18 04:48:01;;;;;;;15.77;5.07;;;;;;;9.59;61.60;92828.69;5101512;28;20036;-76
2022/11/18 04:50:26;;;;;;;13.18;7.45;;;;;;;9.43;62.44;92816.06;5087512;28;20096;-77
2022/11/18 04:52:52;;;;;;;9.55;6.45;;;;;;;9.59;61.58;92829.47;5097586;28;20032;-75
2022/11/18 04:55:17;;;;;;;11.60;6.95;;;;;;;9.56;61.80;92835.44;5097332;28;20032;-76
2022/11/18 04:57:42;;;;;;;14.93;10.25;;;;;;;9.27;62.83;92817.81;5095098;28;20104;-75
2022/11/18 05:00:08;;;;;;;14.90;7.75;;;;;;;9.32;62.55;92827.44;5093580;28;20042;-76
2022/11/18 05:02:34;;;;;;;21.52;14.13;;;;;;;9.12;62.11;92809.69;5093581;28;20024;-75
2022/11/18 05:04:59;;;;;;;17.48;9.80;;;;;;;9.22;63.14;92833.16;5094811;28;20020;-76
2022/11/18 05:07:24;;;;;;;14.07;9.65;;;;;;;9.20;62.69;92817.56;5093662;28;20526;-76
2022/11/18 05:09:50;;;;;;;14.77;10.55;;;;;;;9.35;62.71;92830.19;5090748;28;20074;-75
2022/11/18 05:15:00;;;;;;;18.33;11.27;;;;;;;9.31;62.71;92829.31;5093610;28;20050;-76
2022/11/18 05:17:25;;;;;;;16.95;11.23;;;;;;;9.37;62.40;92827.22;5091318;28;20051;-76
2022/11/18 05:19:51;;;;;;;18.35;11.65;;;;;;;9.37;62.23;92833.31;5090323;28;20036;-75
2022/11/18 05:22:16;;;;;;;22.63;11.73;;;;;;;9.28;62.31;92822.00;5091784;28;20023;-76
2022/11/18 05:24:41;;;;;;;23.40;11.52;;;;;;;9.36;62.15;92837.06;5092737;28;20598;-76
2022/11/18 05:27:07;;;;;;;20.13;12.18;;;;;;;9.35;62.29;92840.81;5093078;28;20032;-75
2022/11/18 05:29:32;;;;;;;20.55;11.75;;;;;;;9.33;62.32;92832.41;5093307;28;20555;-76
2022/11/18 05:31:58;;;;;;;25.80;12.25;;;;;;;9.23;62.19;92834.72;5094743;28;20031;-76
2022/11/18 05:34:24;;;;;;;20.98;13.07;;;;;;;9.15;62.49;92812.44;5100014;28;20028;-76
2022/11/18 05:36:49;;;;;;;25.30;13.65;;;;;;;9.15;62.94;92824.94;5091553;28;20100;-76
2022/11/18 05:39:15;;;;;;;21.92;14.75;;;;;;;9.25;62.51;92841.22;5088989;28;20033;-75
2022/11/18 05:44:24;;;;;;;31.13;19.00;;;;;;;9.20;63.33;92838.78;5091983;28;20035;-75
2022/11/18 05:46:50;;;;;;;31.27;17.30;;;;;;;9.10;63.30;92838.38;5093999;28;20032;-75
2022/11/18 05:49:15;;;;;;;26.10;14.77;;;;;;;9.11;63.29;92831.97;5092701;28;20029;-75
2022/11/18 05:51:40;;;;;;;23.88;13.95;;;;;;;8.82;62.98;92840.81;5092831;28;20040;-76
2022/11/18 05:54:08;;;;;;;14.82;9.77;;;;;;;8.96;63.36;92833.34;5090299;28;20067;-75
2022/11/18 05:56:40;;;;;;;18.67;12.50;;;;;;;8.96;62.73;92825.41;5088423;28;20040;-75
2022/11/18 05:59:05;;;;;;;19.73;13.23;;;;;;;8.83;63.25;92808.69;5081359;28;20012;-76
2022/11/18 06:01:39;;;;;;;19.73;10.20;;;;;;;9.01;63.19;92841.13;5092317;28;20027;-75
2022/11/18 06:04:13;;;;;;;17.27;9.07;;;;;;;9.05;63.06;92834.06;5087883;28;20036;-75
2022/11/18 06:06:38;;;;;;;13.75;7.70;;;;;;;8.73;64.28;92835.59;5091768;28;20048;-76
2022/11/18 06:09:06;;;;;;;14.93;6.13;;;;;;;8.90;64.98;92838.09;5090355;28;20032;-76
2022/11/18 06:11:38;;;;;;;9.35;5.95;;;;;;;8.99;65.12;92824.78;5089979;28;20056;-75
2022/11/18 06:14:13;;;;;;;10.48;7.57;;;;;;;9.03;66.44;92833.63;5090430;28;20043;-75
2022/11/18 06:16:43;;;;;;;10.73;7.78;;;;;;;8.89;66.63;92802.09;5086906;28;20027;-76
2022/11/18 06:19:09;;;;;;;15.13;8.23;;;;;;;9.01;68.99;92833.16;5088051;28;20111;-75
2022/11/18 06:21:34;;;;;;;10.77;8.45;;;;;;;9.07;67.87;92817.81;5088995;28;20584;-76
2022/11/18 06:24:01;;;;;;;13.85;8.82;;;;;;;9.10;68.28;92833.84;5087657;28;20044;-75
2022/11/18 06:26:26;;;;;;;14.88;8.95;;;;;;;8.87;67.63;92814.09;5090413;28;20032;-77
2022/11/18 06:28:54;;;;;;;12.73;8.90;;;;;;;8.70;68.27;92816.91;5089079;28;20036;-75
2022/11/18 06:31:20;;;;;;;15.18;10.10;;;;;;;8.97;67.93;92813.69;5093571;28;20028;-76
2022/11/18 06:33:45;;;;;;;16.70;9.32;;;;;;;9.15;67.61;92833.69;5098724;28;20084;-76
2022/11/18 06:36:10;;;;;;;15.27;9.63;;;;;;;9.13;67.46;92819.19;5093522;28;20025;-76
2022/11/18 06:38:36;;;;;;;18.65;12.18;;;;;;;9.16;67.06;92799.97;5094089;28;20033;-76
2022/11/18 06:41:01;;;;;;;22.55;13.23;;;;;;;9.26;66.53;92832.16;5101607;28;20020;-77
2022/11/18 06:43:42;;;;;;;27.50;18.88;;;;;;;8.53;68.44;92792.09;5095113;28;21303;-76
2022/11/18 06:48:58;;;;;;;35.67;17.58;;;;;;;8.89;68.10;92817.22;5099015;28;20051;-76
2022/11/18 06:51:25;;;;;;;33.88;17.75;;;;;;;9.01;67.78;92835.81;5114562;28;20025;-76
2022/11/18 06:53:50;;;;;;;29.30;16.17;;;;;;;9.03;68.02;92823.00;5094624;28;20066;-76
2022/11/18 06:56:17;;;;;;;32.75;16.42;;;;;;;9.01;67.83;92814.59;5099513;28;20029;-75
2022/11/18 06:58:42;;;;;;;30.20;16.92;;;;;;;9.08;67.72;92806.13;5098800;28;20084;-76
2022/11/18 07:01:20;;;;;;;26.48;17.27;;;;;;;8.82;68.40;92775.31;5100180;28;20067;-76
2022/11/18 07:03:47;;;;;;;30.98;17.17;;;;;;;9.26;68.26;92837.47;5099892;28;20071;-77
2022/11/18 07:06:16;;;;;;;28.08;17.08;;;;;;;9.09;68.11;92811.09;5100448;28;20043;-76
2022/11/18 07:08:42;;;;;;;36.05;18.83;;;;;;;9.36;67.75;92838.94;5097997;28;20181;-77
2022/11/18 07:11:11;;;;;;;34.42;17.83;;;;;;;9.19;67.23;92805.41;5100655;28;20043;-77
2022/11/18 07:13:37;;;;;;;35.60;18.23;;;;;;;9.17;67.27;92802.31;5099954;28;20189;-75
2022/11/18 07:16:08;;;;;;;35.25;17.40;;;;;;;9.39;67.24;92825.78;5095759;28;20074;-76
2022/11/18 07:18:38;;;;;;;33.05;17.92;;;;;;;9.25;68.98;92820.00;5097180;28;20044;-76
2022/11/18 07:21:05;;;;;;;33.08;18.42;;;;;;;9.27;68.35;92785.19;5099290;28;20052;-76
2022/11/18 07:23:31;;;;;;;36.90;18.02;;;;;;;9.48;68.78;92806.34;5104480;28;20048;-76
2022/11/18 07:25:57;;;;;;;30.30;18.90;;;;;;;9.29;70.86;92793.59;5096401;28;20479;-75
2022/11/18 07:28:23;;;;;;;40.67;20.65;;;;;;;9.15;72.00;92762.06;5096449;28;20045;-76
2022/11/18 07:30:49;;;;;;;49.67;25.05;;;;;;;9.34;70.81;92772.91;5102579;28;20036;-76
2022/11/18 07:33:14;;;;;;;43.80;25.13;;;;;;;8.69;72.30;92741.16;5096133;28;20075;-77
2022/11/18 07:35:39;;;;;;;46.40;25.08;;;;;;;8.73;73.62;92768.53;5100172;28;20059;-76
2022/11/18 07:38:05;;;;;;;50.90;25.02;;;;;;;9.20;72.66;92782.28;5093794;28;20041;-77
2022/11/18 07:40:30;;;;;;;50.25;25.63;;;;;;;9.10;73.41;92778.16;5098224;28;20019;-77
2022/11/18 07:42:56;;;;;;;40.53;22.90;;;;;;;9.05;73.84;92775.69;5095499;28;20044;-77
2022/11/18 07:45:22;;;;;;;50.53;25.48;;;;;;;9.20;73.08;92763.72;5099056;28;20017;-76
2022/11/18 07:47:47;;;;;;;39.88;22.45;;;;;;;9.30;72.62;92769.38;5097346;28;20035;-76
2022/11/18 07:50:13;;;;;;;41.22;21.05;;;;;;;9.15;73.11;92783.28;5101353;28;20020;-77
2022/11/18 07:52:38;;;;;;;42.90;22.85;;;;;;;9.25;73.70;92798.00;5096560;28;20032;-76
2022/11/18 07:55:04;;;;;;;49.08;23.10;;;;;;;9.51;72.99;92818.94;5097314;28;20039;-76
2022/11/18 07:57:29;;;;;;;40.30;21.52;;;;;;;9.40;72.87;92798.13;5097009;28;20028;-76
2022/11/18 07:59:55;;;;;;;45.05;22.35;;;;;;;9.57;72.83;92829.03;5093741;28;20124;-75
2022/11/18 08:02:20;;;;;;;48.83;23.42;;;;;;;9.51;72.51;92805.69;5097647;28;20083;-76
2022/11/18 08:04:45;;;;;;;42.83;22.77;;;;;;;9.73;72.46;92840.53;5100652;28;20033;-75
2022/11/18 08:07:13;;;;;;;43.88;22.17;;;;;;;9.89;72.19;92845.97;5096666;28;20032;-75
2022/11/18 08:09:38;;;;;;;48.55;24.63;;;;;;;9.86;72.27;92851.97;5095491;28;20036;-75
2022/11/18 08:12:04;;;;;;;44.70;22.25;;;;;;;9.60;73.58;92846.16;5094964;28;20031;-75
2022/11/18 08:14:30;;;;;;;45.00;20.98;;;;;;;9.66;74.19;92835.00;5093477;28;20040;-75
2022/11/18 08:16:56;;;;;;;48.25;21.85;;;;;;;9.77;73.35;92816.78;5094030;28;20048;-75
2022/11/18 08:19:21;;;;;;;51.83;25.08;;;;;;;9.77;73.06;92800.84;5093537;28;20087;-75
2022/11/18 08:21:46;;;;;;;54.38;25.80;;;;;;;9.55;74.36;92780.03;5093959;28;20044;-75
2022/11/18 08:24:12;;;;;;;48.45;23.02;;;;;;;9.81;74.17;92820.31;5089292;28;20043;-75
2022/11/18 08:26:37;;;;;;;53.92;24.63;;;;;;;9.59;75.00;92805.56;5090979;28;20107;-75
2022/11/18 08:29:03;;;;;;;55.63;23.90;;;;;;;9.91;74.75;92829.72;5092789;28;20033;-76
2022/11/18 08:31:29;;;;;;;39.47;19.20;;;;;;;9.91;75.03;92814.56;5066132;28;20043;-76
2022/11/18 08:33:55;;;;;;;30.13;15.75;;;;;;;10.00;74.86;92804.59;4967001;28;20074;-76
2022/11/18 08:36:24;;;;;;;34.70;16.50;;;;;;;9.84;75.08;92783.22;4970494;28;20072;-75
2022/11/18 08:38:49;;;;;;;40.97;19.02;;;;;;;9.82;75.99;92788.13;4968650;28;20445;-75
2022/11/18 08:41:20;;;;;;;41.65;21.48;;;;;;;9.78;76.25;92794.44;4968458;28;20038;-76
2022/11/18 08:43:45;;;;;;;36.65;18.80;;;;;;;9.62;76.55;92785.56;4968780;28;20031;-75
2022/11/18 08:46:11;;;;;;;41.47;19.20;;;;;;;9.61;77.04;92789.31;5070412;28;20085;-75
2022/11/18 08:48:36;;;;;;;47.42;21.23;;;;;;;9.39;77.51;92750.69;4971012;28;20031;-75
2022/11/18 08:51:02;;;;;;;46.50;21.52;;;;;;;9.81;77.08;92783.13;4972524;28;20106;-74
2022/11/18 08:53:28;;;;;;;52.38;22.50;;;;;;;9.56;77.49;92765.66;4967891;28;20560;-76
2022/11/18 08:55:58;;;;;;;44.45;21.10;;;;;;;9.56;77.95;92755.81;4967669;28;20035;-75
2022/11/18 08:58:24;;;;;;;46.65;21.23;;;;;;;9.56;78.05;92745.19;4970238;28;20038;-75
2022/11/18 09:00:49;;;;;;;35.90;17.77;;;;;;;9.15;79.75;92732.09;4966720;28;20508;-74
2022/11/18 09:03:15;;;;;;;38.05;19.00;;;;;;;9.12;79.38;92714.97;4969365;28;20027;-75
2022/11/18 09:05:40;;;;;;;33.72;16.50;;;;;;;9.61;78.99;92744.97;4968565;28;20035;-75
2022/11/18 09:08:06;;;;;;;22.15;13.38;;;;;;;9.70;78.22;92715.66;4974648;28;20038;-75
2022/11/18 09:10:33;;;;;;;29.35;15.57;;;;;;;9.77;77.43;92697.28;4969418;28;20038;-75
2022/11/18 09:12:58;;;;;;;30.83;16.67;;;;;;;9.99;77.53;92733.97;4964867;28;20039;-75
2022/11/18 09:15:25;;;;;;;34.33;16.92;;;;;;;10.19;77.21;92725.09;5066463;28;20063;-75
2022/11/18 09:17:51;;;;;;;33.60;14.85;;;;;;;10.35;76.25;92735.78;4966894;28;20035;-76
2022/11/18 09:20:16;;;;;;;31.60;15.07;;;;;;;10.09;76.42;92708.84;4969254;28;20043;-75
2022/11/18 09:22:42;;;;;;;31.95;15.73;;;;;;;10.40;76.00;92708.22;4969208;28;20031;-75
2022/11/18 09:25:08;;;;;;;29.40;13.65;;;;;;;10.67;75.37;92704.78;4971819;28;20035;-75
2022/11/18 09:27:33;;;;;;;21.98;12.73;;;;;;;10.88;74.44;92710.66;4968735;28;20560;-76
2022/11/18 09:29:58;;;;;;;17.25;9.90;;;;;;;11.13;73.00;92732.59;4968791;28;20047;-76
2022/11/18 09:32:24;;;;;;;23.02;10.23;;;;;;;11.08;71.56;92704.34;4967337;28;20047;-75
2022/11/18 09:34:49;;;;;;;20.85;11.63;;;;;;;11.19;71.07;92707.28;5067952;28;20056;-75
2022/11/18 09:37:15;;;;;;;18.63;11.35;;;;;;;11.32;71.20;92699.97;4971681;28;20045;-75
2022/11/18 09:39:40;;;;;;;22.60;12.52;;;;;;;11.24;70.60;92698.25;5066913;28;20031;-74
2022/11/18 09:42:51;;;;;;;21.73;12.88;;;;;;;11.50;69.94;92703.81;4970728;28;20031;-75
2022/11/18 09:45:16;;;;;;;24.20;12.85;;;;;;;11.62;69.14;92679.03;4974931;28;20039;-75
2022/11/18 09:47:42;;;;;;;15.15;9.27;;;;;;;11.30;66.96;92654.28;4967113;28;20049;-76
2022/11/18 09:50:18;;;;;;;16.98;9.05;;;;;;;11.39;68.27;92647.69;4971155;28;20016;-75
2022/11/18 09:52:59;;;;;;;23.25;10.10;;;;;;;11.59;67.81;92651.19;4973786;28;20334;-75
2022/11/18 09:55:25;;;;;;;19.63;10.02;;;;;;;11.49;66.98;92646.38;5069237;28;20047;-75
2022/11/18 09:57:53;;;;;;;18.95;8.27;;;;;;;11.71;66.16;92647.66;4968838;28;20129;-75
2022/11/18 10:00:20;;;;;;;15.50;8.63;;;;;;;11.83;65.32;92661.59;4966391;28;20054;-76
2022/11/18 10:02:46;;;;;;;19.48;9.52;;;;;;;11.96;64.58;92659.59;4965650;28;20054;-75
2022/11/18 10:05:23;;;;;;;18.33;8.15;;;;;;;11.82;64.20;92652.09;4970088;28;20035;-75
2022/11/18 10:07:55;;;;;;;19.95;8.55;;;;;;;11.76;64.67;92658.81;4971362;28;20031;-75
2022/11/18 10:10:45;;;;;;;15.85;8.63;;;;;;;11.92;63.81;92670.19;4961109;28;20031;-75
2022/11/18 10:13:48;;;;;;;16.02;6.82;;;;;;;12.16;63.23;92673.72;4961689;28;20102;-76
2022/11/18 10:16:42;;;;;;;14.35;7.47;;;;;;;11.98;61.78;92668.00;4976559;28;20034;-76
2022/11/18 10:19:25;;;;;;;11.63;6.03;;;;;;;11.85;61.61;92654.06;4969921;28;20039;-75
2022/11/18 10:22:29;;;;;;;11.43;6.90;;;;;;;11.70;62.02;92628.22;5067402;28;20038;-75
2022/11/18 10:24:56;;;;;;;16.08;8.80;;;;;;;11.46;62.37;92589.25;4972704;28;20075;-75
2022/11/18 10:27:32;;;;;;;21.90;8.48;;;;;;;11.76;62.87;92629.50;4973442;28;20131;-76
2022/11/18 10:30:00;;;;;;;17.30;7.85;;;;;;;11.72;63.18;92611.91;4975000;28;20073;-77
2022/11/18 10:32:25;;;;;;;18.60;9.20;;;;;;;12.05;64.83;92638.84;4981011;28;20090;-75
2022/11/18 10:34:56;;;;;;;16.48;7.90;;;;;;;12.04;62.63;92614.09;4975828;28;20015;-77
2022/11/18 10:37:34;;;;;;;11.73;7.20;;;;;;;12.20;60.99;92626.59;4973016;28;20031;-76
2022/11/18 10:40:01;;;;;;;15.88;9.70;;;;;;;12.36;61.78;92608.63;4969565;28;20047;-76
2022/11/18 10:42:36;;;;;;;17.63;8.50;;;;;;;12.68;61.36;92626.00;4966659;28;20518;-75
2022/11/18 10:45:20;;;;;;;;;;;;;;;12.84;60.46;92620.56;4970181;28;20045;-77
2022/11/18 10:48:13;;;;;;;20.65;9.63;;;;;;;12.94;60.59;92616.53;4983597;28;19929;-78
2022/11/18 10:50:41;;;;;;;19.05;9.73;;;;;;;12.79;59.77;92584.28;4980484;28;20395;-76
2022/11/18 10:53:30;;;;;;;16.70;10.40;;;;;;;13.10;59.28;92596.63;4976729;28;20030;-76
2022/11/18 10:55:59;;;;;;;20.02;10.73;;;;;;;13.23;58.59;92595.28;4981397;28;20053;-76
2022/11/18 10:58:25;;;;;;;22.85;13.13;;;;;;;13.23;57.83;92591.84;4976451;28;20040;-76
2022/11/18 11:00:51;;;;;;;26.30;12.65;;;;;;;13.27;57.68;92581.97;4973046;28;20073;-76
2022/11/18 11:03:21;;;;;;;18.83;11.25;;;;;;;13.37;57.25;92576.03;5072875;28;20031;-77
2022/11/18 11:05:46;;;;;;;22.10;10.95;;;;;;;13.42;57.67;92569.59;4974980;28;20044;-77
2022/11/18 11:08:20;;;;;;;21.77;10.23;;;;;;;13.35;57.35;92564.94;4971528;28;20038;-76
2022/11/18 11:10:54;;;;;;;28.55;11.00;;;;;;;13.46;57.08;92568.53;4970661;28;20028;-76
2022/11/18 11:13:22;;;;;;;23.13;11.07;;;;;;;13.57;56.96;92576.69;4970467;28;20034;-76
2022/11/18 11:15:52;;;;;;;25.73;12.70;;;;;;;13.55;57.09;92574.38;4986252;28;20043;-78
2022/11/18 11:18:40;;;;;;;21.42;10.95;;;;;;;13.65;56.41;92597.81;4972557;28;20164;-77
2022/11/18 11:21:13;;;;;;;16.00;9.60;;;;;;;13.77;56.45;92582.72;4988593;28;20047;-76
2022/11/18 11:23:39;;;;;;;24.52;11.07;;;;;;;13.59;54.40;92561.13;4974058;28;20037;-76
2022/11/18 11:26:23;;;;;;;23.40;12.15;;;;;;;13.74;54.94;92584.97;4973993;28;20038;-76
2022/11/18 11:28:59;;;;;;;21.70;11.95;;;;;;;13.78;55.00;92558.31;4975357;28;20080;-76
2022/11/18 11:31:24;;;;;;;25.15;11.43;;;;;;;13.85;55.18;92547.69;4970491;28;20035;-77
2022/11/18 11:34:05;;;;;;;37.10;13.15;;;;;;;13.92;54.47;92553.13;4970684;28;20046;-76
2022/11/18 11:36:50;;;;;;;24.98;12.27;;;;;;;13.99;53.43;92547.88;4967828;28;20039;-75
2022/11/18 11:39:52;;;;;;;29.52;14.57;;;;;;;13.96;54.11;92543.25;5056836;28;20435;-75
2022/11/18 11:42:30;;;;;;;24.83;13.40;;;;;;;14.05;54.23;92553.66;4963143;28;20098;-76
2022/11/18 11:45:12;;;;;;;38.10;16.30;;;;;;;14.02;54.11;92543.72;4970217;28;20035;-76
2022/11/18 11:47:59;;;;;;;30.83;16.85;;;;;;;14.02;54.12;92519.66;4968121;28;20059;-76
2022/11/18 11:50:32;;;;;;;37.80;16.90;;;;;;;14.11;54.61;92528.16;4965652;28;20081;-76
2022/11/18 11:53:16;;;;;;;30.65;14.93;;;;;;;14.21;54.72;92526.72;4975250;28;20233;-76
2022/11/18 11:55:50;;;;;;;28.77;15.00;;;;;;;14.22;53.99;92523.69;4982035;28;20092;-76
2022/11/18 11:58:34;;;;;;;30.33;15.38;;;;;;;14.22;53.23;92538.97;5093959;28;20087;-75
2022/11/18 12:01:15;;;;;;;30.13;15.77;;;;;;;14.23;53.36;92524.47;5111550;28;20040;-76
2022/11/18 12:03:51;;;;;;;36.97;18.52;;;;;;;14.17;53.67;92521.34;5109872;28;20089;-76
2022/11/18 12:06:17;;;;;;;32.83;15.90;;;;;;;14.25;53.92;92552.38;5101483;28;20025;-77
2022/11/18 12:08:55;;;;;;;30.73;16.08;;;;;;;14.19;53.61;92519.06;5095628;28;20118;-76
2022/11/18 12:11:41;;;;;;;32.47;14.82;;;;;;;14.25;53.47;92528.28;5090545;28;20032;-75
2022/11/18 12:14:38;;;;;;;29.23;16.80;;;;;;;14.25;53.69;92538.22;5096295;28;20612;-76
2022/11/18 12:17:13;;;;;;;23.55;13.80;;;;;;;14.33;53.52;92537.91;5090963;28;20050;-76